Time;durP1;ratioP1;P1;durP2;ratioP2;P2;SDS_P1;SDS_P2;PMS_P1;PMS_P2;Temp;Humidity;BMP_temperature;BMP_pressure;BME280_temperature;BME280_humidity;BME280_pressure;Samples;Min_cycle;Max_cycle;Signal;HPM_P1;HPM_P2
2023/05/21 00:01:28;;;;;;;27.67;19.33;;;;;;;12.56;100.00;98619.34;4181681;28;20045;-73
2023/05/21 00:03:29;;;;;;;27.20;18.92;;;;;;;12.53;100.00;98622.09;4180833;28;20036;-73
2023/05/21 00:05:31;;;;;;;25.92;17.98;;;;;;;12.47;100.00;98613.34;4179933;28;20084;-73
2023/05/21 00:07:32;;;;;;;26.55;19.13;;;;;;;12.43;100.00;98620.06;4185065;28;20094;-73
2023/05/21 00:09:32;;;;;;;30.63;20.25;;;;;;;12.36;100.00;98618.81;4184514;28;20508;-73
2023/05/21 00:11:32;;;;;;;29.33;18.52;;;;;;;12.34;100.00;98609.31;4181479;28;20114;-73
2023/05/21 00:13:33;;;;;;;28.25;18.10;;;;;;;12.33;100.00;98616.03;4180318;28;20086;-73
2023/05/21 00:15:33;;;;;;;33.95;19.88;;;;;;;12.31;100.00;98619.19;4181469;28;20119;-73
2023/05/21 00:17:35;;;;;;;28.42;18.35;;;;;;;12.25;100.00;98615.19;4180057;28;20120;-73
2023/05/21 00:19:35;;;;;;;26.45;17.50;;;;;;;12.21;100.00;98610.78;4180908;28;20385;-73
2023/05/21 00:21:37;;;;;;;29.73;18.35;;;;;;;12.14;100.00;98614.31;4182372;28;20075;-73
2023/05/21 00:23:38;;;;;;;24.42;16.23;;;;;;;12.07;100.00;98612.25;4177943;28;20069;-73
2023/05/21 00:25:38;;;;;;;26.65;18.65;;;;;;;11.98;100.00;98603.47;4182881;28;20115;-73
2023/05/21 00:27:39;;;;;;;29.67;19.17;;;;;;;11.94;100.00;98610.19;4182853;28;20072;-73
2023/05/21 00:29:39;;;;;;;28.88;18.42;;;;;;;11.87;100.00;98607.38;4181936;28;20477;-73
2023/05/21 00:31:40;;;;;;;30.73;18.52;;;;;;;11.82;100.00;98600.97;4179413;28;20484;-73
2023/05/21 00:33:40;;;;;;;29.60;19.60;;;;;;;11.73;100.00;98606.03;4179886;28;20279;-73
2023/05/21 00:35:41;;;;;;;25.95;17.70;;;;;;;11.70;100.00;98606.00;4179606;28;20060;-73
2023/05/21 00:37:41;;;;;;;30.40;19.00;;;;;;;11.69;100.00;98599.66;4181467;28;20037;-73
2023/05/21 00:39:42;;;;;;;28.63;18.00;;;;;;;11.66;100.00;98603.19;4180111;28;20389;-73
2023/05/21 00:41:42;;;;;;;29.83;18.98;;;;;;;11.62;100.00;98593.25;4180258;28;20077;-73
2023/05/21 00:43:43;;;;;;;30.55;19.05;;;;;;;11.59;100.00;98599.56;4182288;28;20097;-73
2023/05/21 00:45:45;;;;;;;33.42;21.05;;;;;;;11.52;100.00;98592.78;4181236;28;20041;-73
2023/05/21 00:47:47;;;;;;;29.30;19.67;;;;;;;11.53;100.00;98596.34;4180165;28;20142;-73
2023/05/21 00:49:50;;;;;;;29.20;19.33;;;;;;;11.59;100.00;98588.50;4180999;28;20248;-73
2023/05/21 00:51:50;;;;;;;28.33;18.20;;;;;;;11.57;100.00;98590.81;4180429;28;20409;-73
2023/05/21 00:53:51;;;;;;;29.02;19.05;;;;;;;11.49;100.00;98589.97;4178185;28;20052;-73
2023/05/21 00:55:52;;;;;;;30.70;19.58;;;;;;;11.42;100.00;98581.56;4180759;28;20083;-73
2023/05/21 00:57:52;;;;;;;30.23;17.85;;;;;;;11.39;100.00;98582.34;4179963;28;20071;-73
2023/05/21 00:59:53;;;;;;;28.35;17.88;;;;;;;11.34;100.00;98583.50;4179779;28;20037;-73
2023/05/21 01:01:55;;;;;;;33.53;20.27;;;;;;;11.27;100.00;98586.19;4180423;28;20037;-73
2023/05/21 01:03:56;;;;;;;28.00;17.30;;;;;;;11.24;100.00;98593.28;4179692;28;20052;-73
2023/05/21 01:05:59;;;;;;;31.88;19.23;;;;;;;11.21;100.00;98580.19;4178729;28;20029;-73
2023/05/21 01:08:00;;;;;;;27.55;18.73;;;;;;;11.18;100.00;98580.97;4180123;28;20037;-73
2023/05/21 01:10:03;;;;;;;32.53;20.10;;;;;;;11.16;100.00;98585.25;4181548;28;20048;-73
2023/05/21 01:12:04;;;;;;;26.75;17.85;;;;;;;11.13;100.00;98573.00;4178107;28;20111;-74
2023/05/21 01:14:08;;;;;;;28.48;18.60;;;;;;;11.10;100.00;98579.28;4179851;28;20047;-73
2023/05/21 01:16:12;;;;;;;35.22;19.88;;;;;;;11.11;100.00;98582.84;4180398;28;20039;-73
2023/05/21 01:18:13;;;;;;;30.02;18.63;;;;;;;11.08;100.00;98576.09;4181466;28;20073;-73
2023/05/21 01:20:17;;;;;;;31.13;20.42;;;;;;;11.03;100.00;98583.94;4180955;28;20040;-73
2023/05/21 01:22:20;;;;;;;30.05;19.58;;;;;;;11.01;100.00;98572.47;4179908;28;20485;-73
2023/05/21 01:24:21;;;;;;;30.85;18.58;;;;;;;10.97;100.00;98577.94;4178849;28;20276;-73
2023/05/21 01:26:21;;;;;;;30.63;18.00;;;;;;;10.94;100.00;98573.97;4183209;28;20477;-73
2023/05/21 01:28:21;;;;;;;23.50;16.38;;;;;;;10.90;100.00;98573.13;4184408;28;20111;-73
2023/05/21 01:30:23;;;;;;;33.10;18.45;;;;;;;10.85;100.00;98570.72;4183839;28;20093;-73
2023/05/21 01:32:51;;;;;;;29.75;18.65;;;;;;;10.79;100.00;98576.94;4178794;28;20040;-73
2023/05/21 01:34:57;;;;;;;26.20;16.15;;;;;;;10.72;100.00;98576.84;4180030;28;20401;-73
2023/05/21 01:37:12;;;;;;;30.25;18.05;;;;;;;10.64;100.00;98576.75;4179984;28;20041;-73
2023/05/21 01:39:20;;;;;;;27.17;17.33;;;;;;;10.59;100.00;98584.59;4180087;28;20072;-73
2023/05/21 01:41:21;;;;;;;26.92;17.25;;;;;;;10.52;100.00;98578.97;4181546;28;20128;-73
2023/05/21 01:43:22;;;;;;;28.65;17.35;;;;;;;10.50;100.00;98584.88;4183537;28;20045;-73
2023/05/21 01:45:26;;;;;;;32.95;19.10;;;;;;;10.46;100.00;98583.25;4178058;28;20291;-73
2023/05/21 01:47:30;;;;;;;23.67;16.27;;;;;;;10.39;100.00;98573.66;4182478;28;20037;-73
2023/05/21 01:49:30;;;;;;;28.65;18.77;;;;;;;10.38;100.00;98577.59;4182361;28;20733;-73
2023/05/21 01:51:32;;;;;;;25.23;16.73;;;;;;;10.34;100.00;98578.72;4183745;28;20194;-73
2023/05/21 01:53:32;;;;;;;29.05;17.58;;;;;;;10.28;100.00;98575.50;4182188;28;20037;-73
2023/05/21 01:55:32;;;;;;;27.85;17.88;;;;;;;10.25;100.00;98570.69;4181230;28;20051;-73
2023/05/21 01:57:32;;;;;;;26.17;16.67;;;;;;;10.24;100.00;98573.84;4182259;28;20048;-73
2023/05/21 01:59:33;;;;;;;25.48;16.77;;;;;;;10.20;100.00;98572.97;4183600;28;20041;-73
2023/05/21 02:01:34;;;;;;;31.25;18.02;;;;;;;10.17;100.00;98582.78;4182063;28;20049;-73
2023/05/21 02:03:34;;;;;;;27.92;17.15;;;;;;;10.13;100.00;98582.75;4181241;28;20041;-73
2023/05/21 02:05:34;;;;;;;27.45;16.80;;;;;;;10.10;100.00;98574.41;4183241;28;20040;-73
2023/05/21 02:07:36;;;;;;;23.50;16.38;;;;;;;10.10;100.00;98572.44;4177075;28;20132;-73
2023/05/21 02:09:36;;;;;;;26.65;17.42;;;;;;;10.04;100.00;98570.38;4181910;28;20045;-73
2023/05/21 02:11:37;;;;;;;27.70;17.17;;;;;;;10.04;100.00;98570.38;4178820;28;20051;-73
2023/05/21 02:13:41;;;;;;;26.60;16.73;;;;;;;10.04;100.00;98567.59;4183884;28;20064;-73
2023/05/21 02:15:41;;;;;;;27.92;16.80;;;;;;;9.99;100.00;98570.69;4180673;28;20037;-73
2023/05/21 02:17:43;;;;;;;28.60;18.60;;;;;;;9.92;100.00;98574.13;4182358;28;20041;-73
2023/05/21 02:19:43;;;;;;;27.90;18.27;;;;;;;9.84;100.00;98573.22;4182565;28;20648;-73
2023/05/21 02:21:44;;;;;;;27.02;16.98;;;;;;;9.81;100.00;98571.19;4181576;28;20045;-73
2023/05/21 02:23:45;;;;;;;31.63;17.77;;;;;;;9.78;100.00;98569.19;4178404;28;20132;-73
2023/05/21 02:25:45;;;;;;;24.88;16.77;;;;;;;9.73;100.00;98572.25;4182561;28;20041;-73
2023/05/21 02:27:45;;;;;;;30.42;18.67;;;;;;;9.65;100.00;98564.22;4176250;28;20079;-73
2023/05/21 02:29:46;;;;;;;27.92;18.15;;;;;;;9.65;100.00;98569.75;4181840;28;20075;-73
2023/05/21 02:31:46;;;;;;;30.05;17.80;;;;;;;9.60;100.00;98572.81;4180985;28;20044;-73
2023/05/21 02:33:46;;;;;;;26.42;16.17;;;;;;;9.63;100.00;98567.34;4184306;28;20037;-73
2023/05/21 02:35:47;;;;;;;29.35;17.80;;;;;;;9.59;100.00;98566.50;4184934;28;20037;-73
2023/05/21 02:37:47;;;;;;;27.67;16.92;;;;;;;9.61;100.00;98568.91;4186198;28;20091;-73
2023/05/21 02:39:48;;;;;;;26.52;17.80;;;;;;;9.55;100.00;98565.66;4187114;28;20320;-73
2023/05/21 02:41:48;;;;;;;30.23;18.77;;;;;;;9.53;100.00;98570.75;4182100;28;20546;-73
2023/05/21 02:43:48;;;;;;;28.00;17.40;;;;;;;9.46;100.00;98574.19;4187025;28;20562;-73
2023/05/21 02:45:50;;;;;;;26.30;17.48;;;;;;;9.46;100.00;98573.38;4180224;28;20136;-73
2023/05/21 02:47:50;;;;;;;26.67;16.90;;;;;;;9.41;100.00;98568.94;4182617;28;20451;-73
2023/05/21 02:49:52;;;;;;;26.80;17.38;;;;;;;9.43;100.00;98563.06;4183430;28;20151;-73
2023/05/21 02:51:52;;;;;;;25.15;16.15;;;;;;;9.43;100.00;98563.06;4186221;28;20070;-73
2023/05/21 02:53:52;;;;;;;27.00;17.80;;;;;;;9.54;100.00;98561.28;4183247;28;20053;-73
2023/05/21 02:55:53;;;;;;;28.17;17.90;;;;;;;9.56;100.00;98554.22;4181775;28;20029;-73
2023/05/21 02:57:53;;;;;;;29.13;17.52;;;;;;;9.49;100.00;98551.34;4187133;28;20033;-73
2023/05/21 02:59:53;;;;;;;29.83;17.15;;;;;;;9.44;100.00;98559.16;4188315;28;20039;-73
2023/05/21 03:01:53;;;;;;;25.42;15.20;;;;;;;9.39;100.00;98560.25;4182217;28;20041;-73
2023/05/21 03:03:54;;;;;;;25.63;16.92;;;;;;;9.32;100.00;98553.78;4186259;28;20372;-73
2023/05/21 03:05:54;;;;;;;24.63;16.23;;;;;;;9.31;100.00;98550.25;4186376;28;20128;-73
2023/05/21 03:07:55;;;;;;;29.73;18.60;;;;;;;9.24;100.00;98555.63;4184554;28;20481;-73
2023/05/21 03:09:55;;;;;;;31.17;18.55;;;;;;;9.18;100.00;98559.84;4184321;28;20061;-73
2023/05/21 03:11:55;;;;;;;27.27;16.65;;;;;;;9.08;100.00;98552.19;4184777;28;20044;-73
2023/05/21 03:13:56;;;;;;;27.10;16.08;;;;;;;9.05;100.00;98553.72;4183993;28;20645;-73
2023/05/21 03:15:56;;;;;;;26.35;16.52;;;;;;;8.99;100.00;98549.66;4179228;28;20128;-73
2023/05/21 03:17:56;;;;;;;25.55;16.35;;;;;;;9.03;100.00;98550.53;4183047;28;20040;-73
2023/05/21 03:19:56;;;;;;;24.02;15.43;;;;;;;9.05;100.00;98562.00;4186437;28;20055;-73
2023/05/21 03:21:57;;;;;;;24.05;15.82;;;;;;;9.03;100.00;98553.28;4186404;28;20491;-73
2023/05/21 03:23:57;;;;;;;26.63;16.35;;;;;;;8.98;100.00;98557.13;4183859;28;20029;-73
2023/05/21 03:25:57;;;;;;;30.35;18.08;;;;;;;8.95;100.00;98563.41;4185771;28;20040;-73
2023/05/21 03:27:58;;;;;;;28.52;17.58;;;;;;;8.92;100.00;98555.84;4182898;28;20462;-73
2023/05/21 03:29:58;;;;;;;24.27;15.65;;;;;;;8.92;100.00;98555.84;4184108;28;20123;-73
2023/05/21 03:32:00;;;;;;;27.33;15.88;;;;;;;8.94;100.00;98550.78;4183751;28;20369;-73
2023/05/21 03:34:00;;;;;;;26.90;16.38;;;;;;;8.95;100.00;98559.84;4183560;28;20068;-73
2023/05/21 03:36:00;;;;;;;23.60;15.15;;;;;;;8.94;100.00;98552.72;4178638;28;20109;-73
2023/05/21 03:38:01;;;;;;;24.83;15.95;;;;;;;8.92;100.00;98555.84;4184386;28;20045;-73
2023/05/21 03:40:01;;;;;;;25.23;15.23;;;;;;;8.92;100.00;98555.84;4181063;28;20068;-73
2023/05/21 03:42:01;;;;;;;28.02;16.70;;;;;;;8.91;100.00;98556.19;4183054;28;20035;-73
2023/05/21 03:44:01;;;;;;;26.60;16.40;;;;;;;8.89;100.00;98553.81;4185681;28;20407;-73
2023/05/21 03:46:02;;;;;;;24.75;15.20;;;;;;;8.86;100.00;98553.75;4181372;28;20236;-73
2023/05/21 03:48:02;;;;;;;28.60;17.35;;;;;;;8.87;100.00;98547.88;4183711;28;20114;-73
2023/05/21 03:50:04;;;;;;;26.63;15.88;;;;;;;8.86;100.00;98554.56;4189203;28;20031;-73
2023/05/21 03:52:05;;;;;;;25.20;17.15;;;;;;;8.89;100.00;98550.25;4183722;28;20121;-73
2023/05/21 03:54:05;;;;;;;28.38;17.20;;;;;;;8.88;100.00;98549.47;4182756;28;20104;-73
2023/05/21 03:56:05;;;;;;;25.35;15.90;;;;;;;8.89;100.00;98567.59;4183942;28;20032;-73
2023/05/21 03:58:06;;;;;;;31.70;19.00;;;;;;;8.88;100.00;98552.22;4183842;28;20048;-73
2023/05/21 04:00:07;;;;;;;29.95;17.05;;;;;;;8.88;100.00;98552.22;4181440;28;20453;-73
2023/05/21 04:02:08;;;;;;;26.92;16.50;;;;;;;8.93;100.00;98557.44;4181288;28;20032;-73
2023/05/21 04:04:08;;;;;;;30.33;18.40;;;;;;;8.90;100.00;98560.94;4184568;28;20457;-73
2023/05/21 04:06:08;;;;;;;36.67;19.23;;;;;;;8.94;100.00;98566.53;4181571;28;20028;-73
2023/05/21 04:08:09;;;;;;;32.08;17.88;;;;;;;8.95;100.00;98571.69;4178748;28;20029;-73
2023/05/21 04:10:09;;;;;;;29.98;18.50;;;;;;;8.96;100.00;98572.47;4185214;28;20041;-73
2023/05/21 04:12:10;;;;;;;29.95;17.75;;;;;;;9.03;100.00;98578.13;4183752;28;20162;-73
2023/05/21 04:14:10;;;;;;;27.88;17.15;;;;;;;9.10;100.00;98577.44;4180142;28;20033;-73
2023/05/21 04:16:13;;;;;;;30.02;17.52;;;;;;;9.13;100.00;98574.78;4187513;28;20025;-73
2023/05/21 04:18:15;;;;;;;;;;;;;;;9.17;100.00;98572.06;4182991;28;20067;-73
2023/05/21 04:20:15;;;;;;;26.42;16.63;;;;;;;9.21;100.00;98578.47;4181942;28;19908;-73
2023/05/21 04:22:16;;;;;;;32.28;17.85;;;;;;;9.24;100.00;98580.47;4180565;28;20104;-73
2023/05/21 04:24:16;;;;;;;26.45;16.92;;;;;;;9.25;100.00;98574.59;4184577;28;20039;-73
2023/05/21 04:26:16;;;;;;;26.92;16.80;;;;;;;9.30;100.00;98587.31;4186342;28;20029;-73
2023/05/21 04:28:18;;;;;;;32.08;17.58;;;;;;;9.35;100.00;98580.66;4183790;28;20062;-73
2023/05/21 04:30:19;;;;;;;26.95;16.92;;;;;;;9.40;100.00;98583.13;4182320;28;20029;-73
2023/05/21 04:32:19;;;;;;;29.05;16.63;;;;;;;9.44;100.00;98582.03;4184556;28;20040;-73
2023/05/21 04:34:20;;;;;;;28.23;17.90;;;;;;;9.49;100.00;98590.00;4183637;28;20108;-73
2023/05/21 04:36:20;;;;;;;30.17;18.13;;;;;;;9.53;100.00;98582.59;4185133;28;20052;-73
2023/05/21 04:38:21;;;;;;;26.20;16.27;;;;;;;9.61;100.00;98591.81;4183988;28;20450;-73
2023/05/21 04:40:23;;;;;;;32.60;17.67;;;;;;;9.67;100.00;98584.78;4181058;28;20061;-73
2023/05/21 04:42:23;;;;;;;28.63;17.58;;;;;;;9.73;100.00;98579.75;4181989;28;20044;-73
2023/05/21 04:44:24;;;;;;;32.67;18.40;;;;;;;9.79;100.00;98584.59;4183975;28;20036;-73
2023/05/21 04:46:24;;;;;;;28.35;17.25;;;;;;;9.84;100.00;98586.22;4184961;28;20392;-73
2023/05/21 04:48:25;;;;;;;31.05;18.30;;;;;;;9.86;100.00;98583.91;4181926;28;20585;-73
2023/05/21 04:50:26;;;;;;;29.52;17.73;;;;;;;9.94;100.00;98582.88;4184781;28;20037;-73
2023/05/21 04:52:26;;;;;;;30.67;17.30;;;;;;;10.00;100.00;98589.66;4183391;28;20072;-73
2023/05/21 04:54:27;;;;;;;28.23;17.75;;;;;;;10.08;100.00;98587.78;4181313;28;20424;-73
2023/05/21 04:56:28;;;;;;;31.00;17.23;;;;;;;10.15;100.00;98593.44;4185241;28;20354;-73
2023/05/21 04:58:28;;;;;;;26.88;16.42;;;;;;;10.20;100.00;98586.81;4180245;28;20287;-73
2023/05/21 05:00:28;;;;;;;35.20;19.35;;;;;;;10.30;100.00;98586.19;4181656;28;20068;-73
2023/05/21 05:02:29;;;;;;;25.20;16.13;;;;;;;10.36;100.00;98582.72;4182950;28;20443;-73
2023/05/21 05:04:30;;;;;;;24.90;16.17;;;;;;;10.49;100.00;98582.47;4182919;28;20041;-73
2023/05/21 05:06:31;;;;;;;26.95;17.42;;;;;;;10.62;100.00;98587.41;4182121;28;20044;-73
2023/05/21 05:08:31;;;;;;;28.35;17.15;;;;;;;10.76;100.00;98583.22;4181618;28;20033;-73
2023/05/21 05:10:32;;;;;;;29.92;18.92;;;;;;;10.81;100.00;98583.69;4184196;28;20432;-73
2023/05/21 05:12:32;;;;;;;28.13;18.30;;;;;;;10.92;100.00;98581.88;4183908;28;20068;-73
2023/05/21 05:14:32;;;;;;;26.42;17.02;;;;;;;11.01;100.00;98587.09;4180261;28;20087;-73
2023/05/21 05:16:34;;;;;;;28.67;18.63;;;;;;;11.10;100.00;98581.28;4183380;28;20608;-73
2023/05/21 05:18:35;;;;;;;26.98;18.40;;;;;;;11.19;100.00;98576.22;4187482;28;20036;-73
2023/05/21 05:20:35;;;;;;;32.25;20.23;;;;;;;11.27;100.00;98583.44;4179528;28;20036;-73
2023/05/21 05:22:35;;;;;;;31.05;18.90;;;;;;;11.35;100.00;98578.75;4178529;28;20045;-73
2023/05/21 05:24:36;;;;;;;31.48;18.17;;;;;;;11.38;100.00;98570.47;4184218;28;20477;-73
2023/05/21 05:26:36;;;;;;;29.75;19.80;;;;;;;11.43;100.00;98577.66;4182226;28;20060;-73
2023/05/21 05:28:36;;;;;;;31.15;19.63;;;;;;;11.45;100.00;98570.53;4183880;28;20041;-73
2023/05/21 05:30:37;;;;;;;37.83;20.00;;;;;;;11.43;100.00;98574.88;4183813;28;20068;-73
2023/05/21 05:32:37;;;;;;;29.35;19.00;;;;;;;11.43;100.00;98577.66;4177773;28;20458;-73
2023/05/21 05:34:37;;;;;;;28.38;17.67;;;;;;;11.46;100.00;98582.41;4181128;28;20078;-73
2023/05/21 05:36:38;;;;;;;32.33;19.20;;;;;;;11.51;100.00;98580.09;4178814;28;20157;-73
2023/05/21 05:38:38;;;;;;;31.63;19.05;;;;;;;11.60;100.00;98582.56;4179790;28;20052;-73
2023/05/21 05:40:39;;;;;;;34.78;21.63;;;;;;;11.66;100.00;98585.75;4180246;28;20147;-73
2023/05/21 05:42:39;;;;;;;34.60;19.98;;;;;;;11.69;100.00;98579.47;4177657;28;20670;-73
2023/05/21 05:44:40;;;;;;;36.65;21.42;;;;;;;11.75;100.00;98587.06;4179240;28;20041;-73
2023/05/21 05:46:40;;;;;;;33.45;19.63;;;;;;;11.81;100.00;98579.97;4181045;28;20041;-73
2023/05/21 05:48:41;;;;;;;29.70;17.98;;;;;;;11.91;100.00;98572.13;4178714;28;20025;-73
2023/05/21 05:50:41;;;;;;;33.80;20.85;;;;;;;12.01;100.00;98582.53;4179521;28;20524;-73
2023/05/21 05:52:41;;;;;;;38.78;21.60;;;;;;;12.07;100.00;98579.00;4178310;28;20128;-73
2023/05/21 05:54:42;;;;;;;37.85;21.63;;;;;;;12.12;100.00;98574.28;4177702;28;20493;-73
2023/05/21 05:56:42;;;;;;;32.13;19.88;;;;;;;12.13;100.00;98565.56;4179558;28;20037;-73
2023/05/21 05:58:42;;;;;;;33.88;21.77;;;;;;;12.15;100.00;98567.94;4179044;28;20044;-73
2023/05/21 06:00:43;;;;;;;29.50;20.00;;;;;;;12.16;100.00;98567.56;4179613;28;20037;-73
2023/05/21 06:02:43;;;;;;;33.30;20.15;;;;;;;12.24;100.00;98576.72;4178570;28;20194;-73
2023/05/21 06:04:43;;;;;;;35.25;21.13;;;;;;;12.26;100.00;98580.72;4178623;28;20465;-73
2023/05/21 06:06:44;;;;;;;35.25;22.90;;;;;;;12.27;100.00;98578.75;4178567;28;20035;-73
2023/05/21 06:08:45;;;;;;;33.00;21.73;;;;;;;12.27;100.00;98578.75;4180537;28;20091;-73
2023/05/21 06:10:45;;;;;;;32.97;20.98;;;;;;;12.30;100.00;98575.97;4178246;28;20124;-73
2023/05/21 06:12:45;;;;;;;33.92;20.20;;;;;;;12.36;100.00;98584.75;4176660;28;20075;-73
2023/05/21 06:14:47;;;;;;;33.08;20.50;;;;;;;12.39;100.00;98578.41;4179095;28;20040;-73
2023/05/21 06:16:48;;;;;;;36.13;19.30;;;;;;;12.42;100.00;98576.84;4179202;28;20041;-73
2023/05/21 06:18:48;;;;;;;33.05;20.70;;;;;;;12.46;100.00;98572.91;4178599;28;20073;-73
2023/05/21 06:20:49;;;;;;;31.38;19.25;;;;;;;12.52;100.00;98581.66;4180738;28;20110;-73
2023/05/21 06:22:49;;;;;;;33.38;20.25;;;;;;;12.52;100.00;98578.88;4177950;28;20036;-73
2023/05/21 06:24:49;;;;;;;36.55;21.52;;;;;;;12.58;100.00;98575.34;4180334;28;20538;-73
2023/05/21 06:26:50;;;;;;;33.90;20.05;;;;;;;12.65;100.00;98582.91;4182067;28;20064;-73
2023/05/21 06:28:50;;;;;;;30.35;21.10;;;;;;;12.67;100.00;98583.31;4177770;28;20045;-73
2023/05/21 06:30:51;;;;;;;32.33;20.27;;;;;;;12.70;100.00;98578.97;4180004;28;20045;-73
2023/05/21 06:32:51;;;;;;;32.95;21.20;;;;;;;12.70;100.00;98582.53;4179940;28;20065;-73
2023/05/21 06:34:51;;;;;;;31.33;20.88;;;;;;;12.72;100.00;98579.38;4179536;28;20041;-73
2023/05/21 06:36:52;;;;;;;30.40;19.55;;;;;;;12.78;100.00;98570.28;4182540;28;20045;-73
2023/05/21 06:38:52;;;;;;;31.45;20.92;;;;;;;12.81;100.00;98577.81;4178618;28;20051;-73
2023/05/21 06:40:52;;;;;;;32.90;20.63;;;;;;;12.82;100.00;98575.84;4153053;27;20032;-73
2023/05/21 06:42:54;;;;;;;32.80;21.15;;;;;;;12.86;100.00;98579.44;4159308;28;20049;-73
2023/05/21 06:44:55;;;;;;;33.70;20.90;;;;;;;12.91;100.00;98570.75;4183228;28;20093;-73
2023/05/21 06:46:55;;;;;;;32.92;21.48;;;;;;;12.91;100.00;98579.88;4182212;28;20824;-73
2023/05/21 06:48:55;;;;;;;30.15;19.50;;;;;;;12.94;100.00;98570.75;4181020;28;20117;-73
2023/05/21 06:50:56;;;;;;;30.58;19.58;;;;;;;13.02;100.00;98574.34;4184465;28;20476;-73
2023/05/21 06:52:56;;;;;;;29.20;19.65;;;;;;;13.11;100.00;98562.84;4179202;28;20075;-73
2023/05/21 06:54:56;;;;;;;31.05;19.67;;;;;;;13.29;100.00;98576.81;4180590;28;20127;-73
2023/05/21 06:56:57;;;;;;;31.90;21.45;;;;;;;13.45;100.00;98578.03;4182202;28;20646;-73
2023/05/21 06:58:58;;;;;;;33.67;20.55;;;;;;;13.60;100.00;98567.72;4181794;28;20045;-73
2023/05/21 07:00:59;;;;;;;29.13;18.63;;;;;;;13.75;100.00;98571.31;4182033;28;20059;-73
2023/05/21 07:03:00;;;;;;;29.98;20.42;;;;;;;13.89;100.00;98568.53;4180160;28;20041;-73
2023/05/21 07:05:00;;;;;;;30.00;19.52;;;;;;;14.00;100.00;98565.75;4178553;28;20075;-73
2023/05/21 07:07:03;;;;;;;28.40;19.98;;;;;;;14.08;100.00;98567.34;4184042;28;20036;-73
2023/05/21 07:09:04;;;;;;;28.80;19.88;;;;;;;14.18;100.00;98576.84;4178569;28;20037;-73
2023/05/21 07:11:05;;;;;;;30.58;18.85;;;;;;;14.22;100.00;98563.72;4176798;28;20405;-73
2023/05/21 07:13:05;;;;;;;28.05;20.45;;;;;;;14.34;100.00;98572.47;4175302;28;20029;-73
2023/05/21 07:15:06;;;;;;;28.60;19.15;;;;;;;14.44;100.00;98567.25;4179959;28;20500;-73
2023/05/21 07:17:06;;;;;;;31.20;21.55;;;;;;;14.56;100.00;98564.88;4188786;28;20032;-73
2023/05/21 07:19:07;;;;;;;32.90;20.75;;;;;;;14.73;100.00;98570.78;4183652;28;20376;-73
2023/05/21 07:21:07;;;;;;;30.25;20.50;;;;;;;14.90;100.00;98569.94;4185437;28;20040;-73
2023/05/21 07:23:07;;;;;;;29.80;19.98;;;;;;;14.95;100.00;98569.50;4183416;28;20041;-73
2023/05/21 07:25:08;;;;;;;26.88;20.05;;;;;;;14.96;100.00;98571.06;4184786;28;20465;-73
2023/05/21 07:27:08;;;;;;;28.75;20.45;;;;;;;15.01;100.00;98559.53;4184820;28;20043;-73
2023/05/21 07:29:09;;;;;;;29.10;19.92;;;;;;;15.09;100.00;98565.84;4182372;28;20050;-73
2023/05/21 07:31:10;;;;;;;28.08;19.77;;;;;;;15.13;100.00;98558.25;4185902;28;20250;-73
2023/05/21 07:33:11;;;;;;;26.70;18.98;;;;;;;15.14;100.00;98548.69;4181710;28;20037;-73
2023/05/21 07:35:11;;;;;;;27.00;19.25;;;;;;;15.19;100.00;98556.63;4183134;28;20701;-73
2023/05/21 07:37:12;;;;;;;29.73;20.40;;;;;;;15.24;100.00;98558.22;4178535;28;20433;-73
2023/05/21 07:39:13;;;;;;;25.83;18.63;;;;;;;15.32;100.00;98557.75;4182785;28;20089;-73
2023/05/21 07:41:13;;;;;;;27.48;19.05;;;;;;;15.37;100.00;98559.31;4182596;28;20033;-73
2023/05/21 07:43:13;;;;;;;31.27;19.98;;;;;;;15.43;100.00;98558.47;4183841;28;20393;-73
2023/05/21 07:45:14;;;;;;;28.23;19.10;;;;;;;15.43;100.00;98563.25;4182024;28;20489;-74
2023/05/21 07:47:14;;;;;;;27.25;19.42;;;;;;;15.52;100.00;98552.44;4184052;28;20080;-73
2023/05/21 07:49:15;;;;;;;27.08;18.95;;;;;;;15.55;100.00;98556.41;4181174;28;20037;-73
2023/05/21 07:51:16;;;;;;;24.80;18.27;;;;;;;15.71;100.00;98557.50;4181040;28;20106;-73
2023/05/21 07:53:16;;;;;;;30.55;20.58;;;;;;;15.87;100.00;98545.81;4181083;28;20052;-73
2023/05/21 07:55:16;;;;;;;25.73;19.40;;;;;;;15.99;100.00;98550.09;4180901;28;20045;-73
2023/05/21 07:57:17;;;;;;;27.10;19.45;;;;;;;16.14;100.00;98550.78;4180917;28;20040;-74
2023/05/21 07:59:17;;;;;;;27.35;18.90;;;;;;;16.25;100.00;98552.25;4183814;28;20367;-74
2023/05/21 08:01:17;;;;;;;26.85;20.35;;;;;;;16.31;100.00;98544.22;4185357;28;20484;-74
2023/05/21 08:03:18;;;;;;;27.08;18.75;;;;;;;16.40;100.00;98546.53;4182956;28;20087;-73
2023/05/21 08:05:20;;;;;;;31.08;19.42;;;;;;;16.45;100.00;98548.84;4186496;28;20466;-74
2023/05/21 08:07:20;;;;;;;25.85;18.15;;;;;;;16.52;100.00;98543.97;4177733;28;20063;-73
2023/05/21 08:09:21;;;;;;;33.83;20.05;;;;;;;16.69;100.00;98539.41;4178393;28;21326;-74
2023/05/21 08:11:22;;;;;;;24.92;18.25;;;;;;;16.87;100.00;98549.56;4185374;28;20040;-73
2023/05/21 08:13:22;;;;;;;28.02;18.80;;;;;;;17.00;100.00;98542.22;4181149;28;20485;-74
2023/05/21 08:15:26;;;;;;;28.10;19.95;;;;;;;17.12;100.00;98539.66;4179199;28;20040;-73
2023/05/21 08:17:27;;;;;;;27.38;19.02;;;;;;;17.19;100.00;98535.97;4180114;28;20040;-74
2023/05/21 08:19:27;;;;;;;25.83;19.67;;;;;;;17.23;100.00;98544.31;4183421;28;20040;-74
2023/05/21 08:21:28;;;;;;;25.08;18.98;;;;;;;17.27;100.00;98545.84;4186165;28;20036;-74
2023/05/21 08:23:28;;;;;;;24.80;17.92;;;;;;;17.30;100.00;98547.81;4186370;28;20044;-74
2023/05/21 08:25:28;;;;;;;29.23;20.02;;;;;;;17.29;100.00;98548.19;4185841;28;20492;-74
2023/05/21 08:27:29;;;;;;;28.77;19.70;;;;;;;17.26;100.00;98540.66;4182076;28;20110;-74
2023/05/21 08:29:29;;;;;;;25.25;18.80;;;;;;;17.08;100.00;98540.91;4182723;28;20450;-74
2023/05/21 08:31:30;;;;;;;27.85;19.85;;;;;;;17.04;100.00;98545.75;4182693;28;20072;-74
2023/05/21 08:33:30;;;;;;;27.17;20.65;;;;;;;17.10;100.00;98530.91;4181351;28;20041;-74
2023/05/21 08:35:31;;;;;;;26.42;20.05;;;;;;;17.21;100.00;98539.16;4183145;28;20094;-74
2023/05/21 08:37:31;;;;;;;28.85;20.35;;;;;;;17.31;100.00;98527.03;4184787;28;20033;-74
2023/05/21 08:39:31;;;;;;;30.02;20.33;;;;;;;17.38;100.00;98534.50;4180217;28;20124;-73
2023/05/21 08:41:34;;;;;;;30.52;19.95;;;;;;;17.50;100.00;98519.13;4177011;28;20062;-73
2023/05/21 08:43:36;;;;;;;27.80;19.88;;;;;;;17.64;100.00;98528.09;4180302;28;20041;-74
2023/05/21 08:45:41;;;;;;;25.65;20.05;;;;;;;17.70;100.00;98528.44;4184761;28;20075;-74
2023/05/21 08:47:43;;;;;;;25.55;19.15;;;;;;;17.71;100.00;98527.25;4185801;28;20044;-74
2023/05/21 08:49:44;;;;;;;26.17;18.85;;;;;;;17.69;100.00;98529.63;4179364;28;20518;-73
2023/05/21 08:51:45;;;;;;;28.25;18.88;;;;;;;17.77;100.00;98519.91;4182377;28;20071;-73
2023/05/21 08:53:46;;;;;;;24.58;18.40;;;;;;;17.85;100.00;98523.38;4180183;28;20040;-74
2023/05/21 08:55:46;;;;;;;24.67;18.20;;;;;;;17.86;100.00;98524.97;4180924;28;20424;-74
2023/05/21 08:57:46;;;;;;;27.48;17.88;;;;;;;17.96;100.00;98524.81;4182266;28;20538;-74
2023/05/21 08:59:47;;;;;;;26.77;20.27;;;;;;;17.90;100.00;98523.69;4182908;28;20045;-74
2023/05/21 09:01:48;;;;;;;24.23;18.35;;;;;;;17.93;100.00;98528.44;4183947;28;20040;-74
2023/05/21 09:03:51;;;;;;;29.40;19.67;;;;;;;18.00;100.00;98524.72;4181700;28;20564;-74
2023/05/21 09:05:52;;;;;;;;;;;;;;;18.07;100.00;98521.03;4187354;28;20469;-74
2023/05/21 09:08:04;;;;;;;26.58;18.38;;;;;;;18.11;100.00;98522.53;4182956;28;19925;-74
2023/05/21 09:10:12;;;;;;;22.77;18.47;;;;;;;18.13;100.00;98525.72;4181477;28;20048;-74
2023/05/21 09:12:13;;;;;;;23.45;17.60;;;;;;;18.16;100.00;98521.25;4182765;28;20039;-74